Air Navigation Services of Czech Republic
Airport: LKNA Updated:  15.10.2019 20:00:29  UTC
 METAR LKNA 15.10. 20:00 ...
METAR LKNA 152000Z 12011KT CAVOK 15/12 Q1008 NOSIG RMK BLU BLU=
 TAF LKNA 15.10. 17:00 ...
TAF LKNA 151700Z 1518/1618 13012KT CAVOK      PROB30 TEMPO 1521/1606 3000 BR      BECMG 1606/1608 28008KT 9999 RA BKN035      TEMPO 1608/1614 7000 RA BKN020=